Terminal Aerodrome Forecast
Issued by NWS Charleston, WV

Current Version | Previous Version | Graphics & Text | Print | Product List | Glossary On
Versions: 1 2 3 4 5 6 7 8 9 10 11 12 13 14 15 16 17 18 19 20 21 22 23 24
938
FTUS41 KRLX 182320
TAFEKN
TAF
KEKN 182320Z 1900/1924 00000KT P6SM SKC
     FM190500 00000KT 5SM BR FEW250
     FM190600 00000KT 2SM BR FEW001
     FM190800 00000KT 1/4SM FG VV001
     FM191300 00000KT 4SM BR SCT002
     FM191400 27007KT P6SM SCT250=

USA.gov is the U.S. government's official web portal to all federal, state and local government web resources and services.